sensor_id;sensor_type;location;lat;lon;timestamp;temperature;humidity
7814;DHT22;3952;48.364;16.022;2023-07-20T00:02:11;19.40;99.90
7814;DHT22;3952;48.364;16.022;2023-07-20T00:04:39;19.50;99.90
7814;DHT22;3952;48.364;16.022;2023-07-20T00:07:06;19.40;99.90
7814;DHT22;3952;48.364;16.022;2023-07-20T00:09:34;19.50;99.90
7814;DHT22;3952;48.364;16.022;2023-07-20T00:12:01;19.50;99.90
7814;DHT22;3952;48.364;16.022;2023-07-20T00:14:28;19.10;99.90
7814;DHT22;3952;48.364;16.022;2023-07-20T00:16:56;19.50;99.90
7814;DHT22;3952;48.364;16.022;2023-07-20T00:19:23;19.60;99.90
7814;DHT22;3952;48.364;16.022;2023-07-20T00:21:52;19.60;99.90
7814;DHT22;3952;48.364;16.022;2023-07-20T00:24:19;19.60;99.90
7814;DHT22;3952;48.364;16.022;2023-07-20T00:26:46;19.60;99.90
7814;DHT22;3952;48.364;16.022;2023-07-20T00:29:14;19.60;99.90
7814;DHT22;3952;48.364;16.022;2023-07-20T00:31:41;19.60;99.90
7814;DHT22;3952;48.364;16.022;2023-07-20T00:34:09;19.60;99.90
7814;DHT22;3952;48.364;16.022;2023-07-20T00:36:36;19.50;99.90
7814;DHT22;3952;48.364;16.022;2023-07-20T00:39:05;19.50;99.90
7814;DHT22;3952;48.364;16.022;2023-07-20T00:41:32;19.50;99.90
7814;DHT22;3952;48.364;16.022;2023-07-20T00:43:59;19.60;99.90
7814;DHT22;3952;48.364;16.022;2023-07-20T00:46:27;19.60;99.90
7814;DHT22;3952;48.364;16.022;2023-07-20T00:48:54;19.60;99.90
7814;DHT22;3952;48.364;16.022;2023-07-20T00:51:21;19.60;99.90
7814;DHT22;3952;48.364;16.022;2023-07-20T00:53:50;19.60;99.90
7814;DHT22;3952;48.364;16.022;2023-07-20T00:56:19;19.60;99.90
7814;DHT22;3952;48.364;16.022;2023-07-20T00:58:46;19.60;99.90
7814;DHT22;3952;48.364;16.022;2023-07-20T01:01:13;19.60;99.90
7814;DHT22;3952;48.364;16.022;2023-07-20T01:03:40;19.60;99.90
7814;DHT22;3952;48.364;16.022;2023-07-20T01:06:15;19.70;99.90
7814;DHT22;3952;48.364;16.022;2023-07-20T01:08:51;19.60;99.90
7814;DHT22;3952;48.364;16.022;2023-07-20T01:11:31;19.70;99.90
7814;DHT22;3952;48.364;16.022;2023-07-20T01:14:03;19.70;99.90
7814;DHT22;3952;48.364;16.022;2023-07-20T01:16:31;19.70;99.90
7814;DHT22;3952;48.364;16.022;2023-07-20T01:18:59;19.70;99.90
7814;DHT22;3952;48.364;16.022;2023-07-20T01:21:32;19.70;99.90
7814;DHT22;3952;48.364;16.022;2023-07-20T01:24:20;19.70;99.90
7814;DHT22;3952;48.364;16.022;2023-07-20T01:27:22;19.70;99.90
7814;DHT22;3952;48.364;16.022;2023-07-20T01:30:08;19.60;99.90
7814;DHT22;3952;48.364;16.022;2023-07-20T01:32:41;19.50;99.90
7814;DHT22;3952;48.364;16.022;2023-07-20T01:35:10;19.40;99.90
7814;DHT22;3952;48.364;16.022;2023-07-20T01:37:41;19.30;99.90
7814;DHT22;3952;48.364;16.022;2023-07-20T01:40:10;19.30;99.90
7814;DHT22;3952;48.364;16.022;2023-07-20T01:42:37;19.30;99.90
7814;DHT22;3952;48.364;16.022;2023-07-20T01:45:05;19.30;99.90
7814;DHT22;3952;48.364;16.022;2023-07-20T01:47:32;19.30;99.90
7814;DHT22;3952;48.364;16.022;2023-07-20T01:50:01;19.40;99.90
7814;DHT22;3952;48.364;16.022;2023-07-20T01:52:28;19.40;99.90
7814;DHT22;3952;48.364;16.022;2023-07-20T01:54:55;19.30;99.90
7814;DHT22;3952;48.364;16.022;2023-07-20T01:57:22;19.30;99.90
7814;DHT22;3952;48.364;16.022;2023-07-20T01:59:50;19.20;99.90
7814;DHT22;3952;48.364;16.022;2023-07-20T02:02:18;19.20;99.90
7814;DHT22;3952;48.364;16.022;2023-07-20T02:04:44;19.20;99.90
7814;DHT22;3952;48.364;16.022;2023-07-20T02:07:13;19.20;99.90
7814;DHT22;3952;48.364;16.022;2023-07-20T02:09:40;19.20;99.90
7814;DHT22;3952;48.364;16.022;2023-07-20T02:12:08;19.20;99.90
7814;DHT22;3952;48.364;16.022;2023-07-20T02:14:35;19.20;99.90
7814;DHT22;3952;48.364;16.022;2023-07-20T02:17:02;19.20;99.90
7814;DHT22;3952;48.364;16.022;2023-07-20T02:19:30;19.20;99.90
7814;DHT22;3952;48.364;16.022;2023-07-20T02:21:57;19.20;99.90
7814;DHT22;3952;48.364;16.022;2023-07-20T02:24:26;19.20;99.90
7814;DHT22;3952;48.364;16.022;2023-07-20T02:26:53;19.20;99.90
7814;DHT22;3952;48.364;16.022;2023-07-20T02:29:20;19.20;99.90
7814;DHT22;3952;48.364;16.022;2023-07-20T02:31:47;19.20;99.90
7814;DHT22;3952;48.364;16.022;2023-07-20T02:34:14;19.20;99.90
7814;DHT22;3952;48.364;16.022;2023-07-20T02:36:42;19.20;99.90
7814;DHT22;3952;48.364;16.022;2023-07-20T02:39:09;19.20;99.90
7814;DHT22;3952;48.364;16.022;2023-07-20T02:41:38;19.20;99.90
7814;DHT22;3952;48.364;16.022;2023-07-20T02:44:05;19.30;99.90
7814;DHT22;3952;48.364;16.022;2023-07-20T02:46:32;19.30;99.90
7814;DHT22;3952;48.364;16.022;2023-07-20T02:49:01;19.30;99.90
7814;DHT22;3952;48.364;16.022;2023-07-20T02:51:28;19.20;99.90
7814;DHT22;3952;48.364;16.022;2023-07-20T02:53:55;19.20;99.90
7814;DHT22;3952;48.364;16.022;2023-07-20T02:56:22;19.30;99.90
7814;DHT22;3952;48.364;16.022;2023-07-20T02:58:51;19.30;99.90
7814;DHT22;3952;48.364;16.022;2023-07-20T03:01:19;19.30;99.90
7814;DHT22;3952;48.364;16.022;2023-07-20T03:03:46;19.30;99.90
7814;DHT22;3952;48.364;16.022;2023-07-20T03:06:13;19.40;99.90
7814;DHT22;3952;48.364;16.022;2023-07-20T03:08:41;19.40;99.90
7814;DHT22;3952;48.364;16.022;2023-07-20T03:11:13;19.40;99.90
7814;DHT22;3952;48.364;16.022;2023-07-20T03:13:41;19.60;99.90
7814;DHT22;3952;48.364;16.022;2023-07-20T03:16:11;19.50;99.90
7814;DHT22;3952;48.364;16.022;2023-07-20T03:18:41;19.50;99.90
7814;DHT22;3952;48.364;16.022;2023-07-20T03:21:09;19.50;99.90
7814;DHT22;3952;48.364;16.022;2023-07-20T03:23:38;19.60;99.90
7814;DHT22;3952;48.364;16.022;2023-07-20T03:26:05;19.60;99.90
7814;DHT22;3952;48.364;16.022;2023-07-20T03:28:34;19.60;99.90
7814;DHT22;3952;48.364;16.022;2023-07-20T03:31:01;19.60;99.90
7814;DHT22;3952;48.364;16.022;2023-07-20T03:33:30;19.70;99.90
7814;DHT22;3952;48.364;16.022;2023-07-20T03:35:57;19.70;99.90
7814;DHT22;3952;48.364;16.022;2023-07-20T03:38:25;19.70;99.90
7814;DHT22;3952;48.364;16.022;2023-07-20T03:40:54;19.70;99.90
7814;DHT22;3952;48.364;16.022;2023-07-20T03:43:22;19.70;99.90
7814;DHT22;3952;48.364;16.022;2023-07-20T03:45:48;19.80;99.90
7814;DHT22;3952;48.364;16.022;2023-07-20T03:48:17;19.80;99.90
7814;DHT22;3952;48.364;16.022;2023-07-20T03:50:47;19.80;99.90
7814;DHT22;3952;48.364;16.022;2023-07-20T03:53:15;19.80;99.90
7814;DHT22;3952;48.364;16.022;2023-07-20T03:55:45;19.80;99.90
7814;DHT22;3952;48.364;16.022;2023-07-20T03:58:12;19.90;99.90
7814;DHT22;3952;48.364;16.022;2023-07-20T04:00:40;19.90;99.90
7814;DHT22;3952;48.364;16.022;2023-07-20T04:03:07;19.90;99.90
7814;DHT22;3952;48.364;16.022;2023-07-20T04:05:34;19.90;99.90
7814;DHT22;3952;48.364;16.022;2023-07-20T04:08:03;19.90;99.90
7814;DHT22;3952;48.364;16.022;2023-07-20T04:10:30;19.90;99.90
7814;DHT22;3952;48.364;16.022;2023-07-20T04:12:57;19.90;99.90
7814;DHT22;3952;48.364;16.022;2023-07-20T04:15:25;20.00;99.90
7814;DHT22;3952;48.364;16.022;2023-07-20T04:17:52;20.00;99.90
7814;DHT22;3952;48.364;16.022;2023-07-20T04:20:19;20.00;99.90
7814;DHT22;3952;48.364;16.022;2023-07-20T04:22:46;20.10;99.90
7814;DHT22;3952;48.364;16.022;2023-07-20T04:25:15;20.10;99.90
7814;DHT22;3952;48.364;16.022;2023-07-20T04:27:42;20.20;99.90
7814;DHT22;3952;48.364;16.022;2023-07-20T04:30:11;20.20;99.90
7814;DHT22;3952;48.364;16.022;2023-07-20T04:32:38;20.30;99.90
7814;DHT22;3952;48.364;16.022;2023-07-20T04:35:17;20.30;99.90
7814;DHT22;3952;48.364;16.022;2023-07-20T04:37:45;20.40;99.90
7814;DHT22;3952;48.364;16.022;2023-07-20T04:40:12;20.50;99.90
7814;DHT22;3952;48.364;16.022;2023-07-20T04:42:41;20.60;99.90
7814;DHT22;3952;48.364;16.022;2023-07-20T04:45:09;20.60;99.90
7814;DHT22;3952;48.364;16.022;2023-07-20T04:47:36;20.70;99.90
7814;DHT22;3952;48.364;16.022;2023-07-20T04:50:04;20.70;99.90
7814;DHT22;3952;48.364;16.022;2023-07-20T04:52:32;20.70;99.90
7814;DHT22;3952;48.364;16.022;2023-07-20T04:54:59;20.70;99.90
7814;DHT22;3952;48.364;16.022;2023-07-20T04:57:26;20.70;99.90
7814;DHT22;3952;48.364;16.022;2023-07-20T04:59:54;20.80;99.90
7814;DHT22;3952;48.364;16.022;2023-07-20T05:02:22;20.80;99.90
7814;DHT22;3952;48.364;16.022;2023-07-20T05:04:49;20.80;99.90
7814;DHT22;3952;48.364;16.022;2023-07-20T05:07:16;20.80;99.90
7814;DHT22;3952;48.364;16.022;2023-07-20T05:09:43;20.80;99.90
7814;DHT22;3952;48.364;16.022;2023-07-20T05:12:10;20.80;99.90
7814;DHT22;3952;48.364;16.022;2023-07-20T05:14:38;20.80;99.90
7814;DHT22;3952;48.364;16.022;2023-07-20T05:17:07;20.80;99.90
7814;DHT22;3952;48.364;16.022;2023-07-20T05:19:34;20.90;99.90
7814;DHT22;3952;48.364;16.022;2023-07-20T05:22:01;21.00;99.90
7814;DHT22;3952;48.364;16.022;2023-07-20T05:24:28;21.10;99.90
7814;DHT22;3952;48.364;16.022;2023-07-20T05:26:55;21.10;99.90
7814;DHT22;3952;48.364;16.022;2023-07-20T05:29:23;21.10;99.90
7814;DHT22;3952;48.364;16.022;2023-07-20T05:31:50;21.20;99.90
7814;DHT22;3952;48.364;16.022;2023-07-20T05:34:18;21.20;99.90
7814;DHT22;3952;48.364;16.022;2023-07-20T05:37:11;21.30;99.90
7814;DHT22;3952;48.364;16.022;2023-07-20T05:39:38;21.30;99.90
7814;DHT22;3952;48.364;16.022;2023-07-20T05:42:05;21.40;99.90
7814;DHT22;3952;48.364;16.022;2023-07-20T05:44:33;21.40;99.90
7814;DHT22;3952;48.364;16.022;2023-07-20T05:47:00;21.50;99.90
7814;DHT22;3952;48.364;16.022;2023-07-20T05:49:29;21.60;99.90
7814;DHT22;3952;48.364;16.022;2023-07-20T05:51:56;21.70;99.90
7814;DHT22;3952;48.364;16.022;2023-07-20T05:54:24;21.80;99.90
7814;DHT22;3952;48.364;16.022;2023-07-20T05:56:52;21.90;99.90
7814;DHT22;3952;48.364;16.022;2023-07-20T05:59:20;22.00;99.90
7814;DHT22;3952;48.364;16.022;2023-07-20T06:01:47;22.00;99.90
7814;DHT22;3952;48.364;16.022;2023-07-20T06:04:15;22.10;99.90
7814;DHT22;3952;48.364;16.022;2023-07-20T06:06:44;22.20;99.90
7814;DHT22;3952;48.364;16.022;2023-07-20T06:09:12;22.30;99.90
7814;DHT22;3952;48.364;16.022;2023-07-20T06:11:39;22.40;99.90
7814;DHT22;3952;48.364;16.022;2023-07-20T06:14:06;22.50;99.90
7814;DHT22;3952;48.364;16.022;2023-07-20T06:16:34;22.60;99.90
7814;DHT22;3952;48.364;16.022;2023-07-20T06:19:01;22.70;99.90
7814;DHT22;3952;48.364;16.022;2023-07-20T06:21:28;22.80;99.90
7814;DHT22;3952;48.364;16.022;2023-07-20T06:23:57;22.90;99.90
7814;DHT22;3952;48.364;16.022;2023-07-20T06:26:24;23.00;99.90
7814;DHT22;3952;48.364;16.022;2023-07-20T06:28:51;23.10;99.90
7814;DHT22;3952;48.364;16.022;2023-07-20T06:31:18;23.20;99.90
7814;DHT22;3952;48.364;16.022;2023-07-20T06:33:46;23.30;99.90
7814;DHT22;3952;48.364;16.022;2023-07-20T06:36:13;23.40;99.90
7814;DHT22;3952;48.364;16.022;2023-07-20T06:38:39;23.50;99.90
7814;DHT22;3952;48.364;16.022;2023-07-20T06:41:08;23.60;99.90
7814;DHT22;3952;48.364;16.022;2023-07-20T06:43:35;23.70;99.90
7814;DHT22;3952;48.364;16.022;2023-07-20T06:46:02;23.80;99.90
7814;DHT22;3952;48.364;16.022;2023-07-20T06:48:29;23.90;99.90
7814;DHT22;3952;48.364;16.022;2023-07-20T06:50:57;23.90;99.90
7814;DHT22;3952;48.364;16.022;2023-07-20T06:53:24;24.00;99.90
7814;DHT22;3952;48.364;16.022;2023-07-20T06:55:51;24.10;99.90
7814;DHT22;3952;48.364;16.022;2023-07-20T06:58:19;24.20;99.90
7814;DHT22;3952;48.364;16.022;2023-07-20T07:00:48;24.30;99.90
7814;DHT22;3952;48.364;16.022;2023-07-20T07:03:15;24.40;99.90
7814;DHT22;3952;48.364;16.022;2023-07-20T07:05:43;24.40;99.90
7814;DHT22;3952;48.364;16.022;2023-07-20T07:08:11;24.50;99.90
7814;DHT22;3952;48.364;16.022;2023-07-20T07:10:38;24.60;99.90
7814;DHT22;3952;48.364;16.022;2023-07-20T07:13:05;24.70;99.90
7814;DHT22;3952;48.364;16.022;2023-07-20T07:15:34;24.80;99.90
7814;DHT22;3952;48.364;16.022;2023-07-20T07:18:01;24.80;99.90
7814;DHT22;3952;48.364;16.022;2023-07-20T07:20:29;24.80;99.90
7814;DHT22;3952;48.364;16.022;2023-07-20T07:22:56;24.80;99.90
7814;DHT22;3952;48.364;16.022;2023-07-20T07:25:23;24.90;99.90
7814;DHT22;3952;48.364;16.022;2023-07-20T07:27:52;25.00;99.90
7814;DHT22;3952;48.364;16.022;2023-07-20T07:30:19;25.10;99.90
7814;DHT22;3952;48.364;16.022;2023-07-20T07:32:48;25.20;99.90
7814;DHT22;3952;48.364;16.022;2023-07-20T07:35:15;25.30;99.90
7814;DHT22;3952;48.364;16.022;2023-07-20T07:37:43;25.30;99.90
7814;DHT22;3952;48.364;16.022;2023-07-20T07:40:11;25.50;99.90
7814;DHT22;3952;48.364;16.022;2023-07-20T07:42:38;25.60;99.90
7814;DHT22;3952;48.364;16.022;2023-07-20T07:45:06;25.70;99.90
7814;DHT22;3952;48.364;16.022;2023-07-20T07:47:33;25.80;99.90
7814;DHT22;3952;48.364;16.022;2023-07-20T07:50:03;25.90;99.90
7814;DHT22;3952;48.364;16.022;2023-07-20T07:52:30;26.00;99.90
7814;DHT22;3952;48.364;16.022;2023-07-20T07:54:58;26.10;99.90
7814;DHT22;3952;48.364;16.022;2023-07-20T07:57:25;26.20;99.90
7814;DHT22;3952;48.364;16.022;2023-07-20T07:59:53;26.40;99.90
7814;DHT22;3952;48.364;16.022;2023-07-20T08:02:20;26.50;99.90
7814;DHT22;3952;48.364;16.022;2023-07-20T08:04:48;26.60;99.90
7814;DHT22;3952;48.364;16.022;2023-07-20T08:07:19;26.70;99.90
7814;DHT22;3952;48.364;16.022;2023-07-20T08:09:46;26.70;99.90
7814;DHT22;3952;48.364;16.022;2023-07-20T08:12:13;26.70;99.90
7814;DHT22;3952;48.364;16.022;2023-07-20T08:14:43;26.60;99.90
7814;DHT22;3952;48.364;16.022;2023-07-20T08:17:10;26.50;99.90
7814;DHT22;3952;48.364;16.022;2023-07-20T08:19:37;26.40;99.90
7814;DHT22;3952;48.364;16.022;2023-07-20T08:22:07;26.30;99.90
7814;DHT22;3952;48.364;16.022;2023-07-20T08:24:39;26.20;99.90
7814;DHT22;3952;48.364;16.022;2023-07-20T08:27:06;26.20;99.90
7814;DHT22;3952;48.364;16.022;2023-07-20T08:29:34;26.10;99.90
7814;DHT22;3952;48.364;16.022;2023-07-20T08:32:02;26.00;99.90
7814;DHT22;3952;48.364;16.022;2023-07-20T08:34:29;25.90;99.90
7814;DHT22;3952;48.364;16.022;2023-07-20T08:36:57;25.90;99.90
7814;DHT22;3952;48.364;16.022;2023-07-20T08:39:24;25.80;99.90
7814;DHT22;3952;48.364;16.022;2023-07-20T08:41:55;25.80;99.90
7814;DHT22;3952;48.364;16.022;2023-07-20T08:44:24;25.80;99.90
7814;DHT22;3952;48.364;16.022;2023-07-20T08:46:54;25.80;99.90
7814;DHT22;3952;48.364;16.022;2023-07-20T08:49:21;25.80;99.90
7814;DHT22;3952;48.364;16.022;2023-07-20T08:51:49;25.80;99.90
7814;DHT22;3952;48.364;16.022;2023-07-20T08:54:17;25.80;99.90
7814;DHT22;3952;48.364;16.022;2023-07-20T08:56:45;25.80;99.90
7814;DHT22;3952;48.364;16.022;2023-07-20T08:59:17;25.70;99.90
7814;DHT22;3952;48.364;16.022;2023-07-20T09:01:44;25.70;99.90
7814;DHT22;3952;48.364;16.022;2023-07-20T09:04:13;25.70;99.90
7814;DHT22;3952;48.364;16.022;2023-07-20T09:06:40;25.70;99.90
7814;DHT22;3952;48.364;16.022;2023-07-20T09:09:07;25.90;99.90
7814;DHT22;3952;48.364;16.022;2023-07-20T09:11:34;25.90;99.90
7814;DHT22;3952;48.364;16.022;2023-07-20T09:14:06;26.00;99.90
7814;DHT22;3952;48.364;16.022;2023-07-20T09:16:47;26.00;99.90
7814;DHT22;3952;48.364;16.022;2023-07-20T09:19:15;26.00;99.90
7814;DHT22;3952;48.364;16.022;2023-07-20T09:21:45;26.00;99.90
7814;DHT22;3952;48.364;16.022;2023-07-20T09:24:13;26.00;99.90
7814;DHT22;3952;48.364;16.022;2023-07-20T09:26:41;26.10;99.90
7814;DHT22;3952;48.364;16.022;2023-07-20T09:29:09;26.10;99.90
7814;DHT22;3952;48.364;16.022;2023-07-20T09:31:38;26.20;99.90
7814;DHT22;3952;48.364;16.022;2023-07-20T09:34:06;26.20;99.90
7814;DHT22;3952;48.364;16.022;2023-07-20T09:36:34;26.20;99.90
7814;DHT22;3952;48.364;16.022;2023-07-20T09:39:03;26.20;99.90
7814;DHT22;3952;48.364;16.022;2023-07-20T09:41:39;26.20;99.90
7814;DHT22;3952;48.364;16.022;2023-07-20T09:44:08;26.20;99.90
7814;DHT22;3952;48.364;16.022;2023-07-20T09:46:45;26.30;99.90
7814;DHT22;3952;48.364;16.022;2023-07-20T09:49:14;26.40;99.90
7814;DHT22;3952;48.364;16.022;2023-07-20T09:51:41;26.40;99.90
7814;DHT22;3952;48.364;16.022;2023-07-20T09:54:10;26.50;99.90
7814;DHT22;3952;48.364;16.022;2023-07-20T09:56:39;26.60;99.90
7814;DHT22;3952;48.364;16.022;2023-07-20T09:59:07;26.70;99.90
7814;DHT22;3952;48.364;16.022;2023-07-20T10:01:35;26.80;99.90
7814;DHT22;3952;48.364;16.022;2023-07-20T10:04:07;27.00;99.90
7814;DHT22;3952;48.364;16.022;2023-07-20T10:06:36;27.10;99.00
7814;DHT22;3952;48.364;16.022;2023-07-20T10:09:06;27.10;98.60
7814;DHT22;3952;48.364;16.022;2023-07-20T10:11:36;27.00;98.30
7814;DHT22;3952;48.364;16.022;2023-07-20T10:14:04;26.90;98.10
7814;DHT22;3952;48.364;16.022;2023-07-20T10:16:35;26.80;98.20
7814;DHT22;3952;48.364;16.022;2023-07-20T10:19:07;27.00;98.70
7814;DHT22;3952;48.364;16.022;2023-07-20T10:21:44;27.20;97.60
7814;DHT22;3952;48.364;16.022;2023-07-20T10:24:13;27.30;97.30
7814;DHT22;3952;48.364;16.022;2023-07-20T10:26:41;27.30;97.70
7814;DHT22;3952;48.364;16.022;2023-07-20T10:29:08;27.40;97.90
7814;DHT22;3952;48.364;16.022;2023-07-20T10:31:37;27.50;96.70
7814;DHT22;3952;48.364;16.022;2023-07-20T10:34:06;27.40;96.00
7814;DHT22;3952;48.364;16.022;2023-07-20T10:36:43;27.50;96.70
7814;DHT22;3952;48.364;16.022;2023-07-20T10:39:22;27.70;96.40
7814;DHT22;3952;48.364;16.022;2023-07-20T10:41:50;27.90;95.20
7814;DHT22;3952;48.364;16.022;2023-07-20T10:44:26;27.90;95.20
7814;DHT22;3952;48.364;16.022;2023-07-20T10:46:59;27.80;95.40
7814;DHT22;3952;48.364;16.022;2023-07-20T10:49:29;27.70;96.00
7814;DHT22;3952;48.364;16.022;2023-07-20T10:51:57;27.70;95.90
7814;DHT22;3952;48.364;16.022;2023-07-20T10:54:46;27.70;96.20
7814;DHT22;3952;48.364;16.022;2023-07-20T10:57:39;27.70;96.00
7814;DHT22;3952;48.364;16.022;2023-07-20T11:00:10;27.70;95.90
7814;DHT22;3952;48.364;16.022;2023-07-20T11:02:46;27.60;97.20
7814;DHT22;3952;48.364;16.022;2023-07-20T11:05:35;27.70;97.10
7814;DHT22;3952;48.364;16.022;2023-07-20T11:08:04;27.80;97.40
7814;DHT22;3952;48.364;16.022;2023-07-20T11:10:32;27.80;96.40
7814;DHT22;3952;48.364;16.022;2023-07-20T11:13:26;27.80;96.70
7814;DHT22;3952;48.364;16.022;2023-07-20T11:16:02;27.70;96.60
7814;DHT22;3952;48.364;16.022;2023-07-20T11:18:34;27.70;96.70
7814;DHT22;3952;48.364;16.022;2023-07-20T11:21:09;27.60;96.80
7814;DHT22;3952;48.364;16.022;2023-07-20T11:23:38;27.60;96.40
7814;DHT22;3952;48.364;16.022;2023-07-20T11:26:06;27.60;96.50
7814;DHT22;3952;48.364;16.022;2023-07-20T11:28:34;27.50;97.10
7814;DHT22;3952;48.364;16.022;2023-07-20T11:31:02;27.60;96.90
7814;DHT22;3952;48.364;16.022;2023-07-20T11:33:29;27.70;96.60
7814;DHT22;3952;48.364;16.022;2023-07-20T11:35:56;27.80;95.70
7814;DHT22;3952;48.364;16.022;2023-07-20T11:38:25;27.90;95.70
7814;DHT22;3952;48.364;16.022;2023-07-20T11:40:52;27.90;95.30
7814;DHT22;3952;48.364;16.022;2023-07-20T11:43:20;28.00;95.80
7814;DHT22;3952;48.364;16.022;2023-07-20T11:45:50;28.10;96.20
7814;DHT22;3952;48.364;16.022;2023-07-20T11:48:17;28.30;95.00
7814;DHT22;3952;48.364;16.022;2023-07-20T11:50:44;28.40;94.00
7814;DHT22;3952;48.364;16.022;2023-07-20T11:53:12;28.50;93.90
7814;DHT22;3952;48.364;16.022;2023-07-20T11:55:41;28.50;94.20
7814;DHT22;3952;48.364;16.022;2023-07-20T11:58:09;28.60;94.60
7814;DHT22;3952;48.364;16.022;2023-07-20T12:00:39;28.60;93.90
7814;DHT22;3952;48.364;16.022;2023-07-20T12:03:07;28.60;93.40
7814;DHT22;3952;48.364;16.022;2023-07-20T12:05:35;28.60;92.80
7814;DHT22;3952;48.364;16.022;2023-07-20T12:08:02;28.60;93.00
7814;DHT22;3952;48.364;16.022;2023-07-20T12:10:30;28.70;93.90
7814;DHT22;3952;48.364;16.022;2023-07-20T12:13:03;28.80;93.10
7814;DHT22;3952;48.364;16.022;2023-07-20T12:15:30;28.80;92.70
7814;DHT22;3952;48.364;16.022;2023-07-20T12:17:59;28.90;92.60
7814;DHT22;3952;48.364;16.022;2023-07-20T12:20:28;28.90;92.10
7814;DHT22;3952;48.364;16.022;2023-07-20T12:22:58;28.80;90.90
7814;DHT22;3952;48.364;16.022;2023-07-20T12:25:37;28.70;91.60
7814;DHT22;3952;48.364;16.022;2023-07-20T12:28:08;28.80;92.60
7814;DHT22;3952;48.364;16.022;2023-07-20T12:30:36;28.90;91.80
7814;DHT22;3952;48.364;16.022;2023-07-20T12:33:04;29.00;91.90
7814;DHT22;3952;48.364;16.022;2023-07-20T12:35:31;29.00;91.00
7814;DHT22;3952;48.364;16.022;2023-07-20T12:37:59;29.00;91.60
7814;DHT22;3952;48.364;16.022;2023-07-20T12:40:26;29.00;91.90
7814;DHT22;3952;48.364;16.022;2023-07-20T12:42:53;29.00;91.60
7814;DHT22;3952;48.364;16.022;2023-07-20T12:45:22;29.10;91.90
7814;DHT22;3952;48.364;16.022;2023-07-20T12:47:49;29.20;92.30
7814;DHT22;3952;48.364;16.022;2023-07-20T12:50:16;29.30;91.50
7814;DHT22;3952;48.364;16.022;2023-07-20T12:52:43;29.30;90.00
7814;DHT22;3952;48.364;16.022;2023-07-20T12:55:11;29.20;91.10
7814;DHT22;3952;48.364;16.022;2023-07-20T12:57:38;29.30;91.10
7814;DHT22;3952;48.364;16.022;2023-07-20T13:00:08;29.30;90.20
7814;DHT22;3952;48.364;16.022;2023-07-20T13:02:38;29.30;90.60
7814;DHT22;3952;48.364;16.022;2023-07-20T13:05:06;29.20;89.40
7814;DHT22;3952;48.364;16.022;2023-07-20T13:07:35;29.20;89.80
7814;DHT22;3952;48.364;16.022;2023-07-20T13:10:03;29.10;88.90
7814;DHT22;3952;48.364;16.022;2023-07-20T13:12:33;29.10;88.20
7814;DHT22;3952;48.364;16.022;2023-07-20T13:15:02;29.00;88.80
7814;DHT22;3952;48.364;16.022;2023-07-20T13:17:31;29.00;90.70
7814;DHT22;3952;48.364;16.022;2023-07-20T13:20:00;28.90;91.20
7814;DHT22;3952;48.364;16.022;2023-07-20T13:22:28;28.70;91.30
7814;DHT22;3952;48.364;16.022;2023-07-20T13:24:55;28.60;91.30
7814;DHT22;3952;48.364;16.022;2023-07-20T13:27:22;28.50;91.10
7814;DHT22;3952;48.364;16.022;2023-07-20T13:29:51;28.40;91.50
7814;DHT22;3952;48.364;16.022;2023-07-20T13:32:19;28.40;91.80
7814;DHT22;3952;48.364;16.022;2023-07-20T13:34:46;28.40;91.90
7814;DHT22;3952;48.364;16.022;2023-07-20T13:37:15;28.40;92.10
7814;DHT22;3952;48.364;16.022;2023-07-20T13:39:42;28.50;92.70
7814;DHT22;3952;48.364;16.022;2023-07-20T13:42:10;28.60;92.10
7814;DHT22;3952;48.364;16.022;2023-07-20T13:44:38;28.70;92.40
7814;DHT22;3952;48.364;16.022;2023-07-20T13:47:06;28.80;92.10
7814;DHT22;3952;48.364;16.022;2023-07-20T13:49:33;28.90;91.20
7814;DHT22;3952;48.364;16.022;2023-07-20T13:52:00;29.00;88.80
7814;DHT22;3952;48.364;16.022;2023-07-20T13:54:29;29.00;85.10
7814;DHT22;3952;48.364;16.022;2023-07-20T13:56:56;29.00;85.10
7814;DHT22;3952;48.364;16.022;2023-07-20T13:59:23;29.10;88.80
7814;DHT22;3952;48.364;16.022;2023-07-20T14:01:51;29.10;82.30
7814;DHT22;3952;48.364;16.022;2023-07-20T14:04:18;29.10;82.80
7814;DHT22;3952;48.364;16.022;2023-07-20T14:06:45;29.10;86.10
7814;DHT22;3952;48.364;16.022;2023-07-20T14:09:13;29.10;86.50
7814;DHT22;3952;48.364;16.022;2023-07-20T14:11:41;29.10;86.60
7814;DHT22;3952;48.364;16.022;2023-07-20T14:14:09;29.10;85.00
7814;DHT22;3952;48.364;16.022;2023-07-20T14:16:36;29.00;83.30
7814;DHT22;3952;48.364;16.022;2023-07-20T14:19:04;28.90;84.20
7814;DHT22;3952;48.364;16.022;2023-07-20T14:21:31;28.90;85.10
7814;DHT22;3952;48.364;16.022;2023-07-20T14:23:59;28.90;84.50
7814;DHT22;3952;48.364;16.022;2023-07-20T14:26:26;29.00;83.90
7814;DHT22;3952;48.364;16.022;2023-07-20T14:28:55;29.00;84.60
7814;DHT22;3952;48.364;16.022;2023-07-20T14:31:22;29.00;83.10
7814;DHT22;3952;48.364;16.022;2023-07-20T14:33:49;28.80;84.30
7814;DHT22;3952;48.364;16.022;2023-07-20T14:36:16;28.90;85.60
7814;DHT22;3952;48.364;16.022;2023-07-20T14:38:44;28.90;84.70
7814;DHT22;3952;48.364;16.022;2023-07-20T14:41:11;28.90;85.20
7814;DHT22;3952;48.364;16.022;2023-07-20T14:43:38;28.90;85.10
7814;DHT22;3952;48.364;16.022;2023-07-20T14:46:07;28.90;84.10
7814;DHT22;3952;48.364;16.022;2023-07-20T14:48:34;29.00;82.30
7814;DHT22;3952;48.364;16.022;2023-07-20T14:51:01;29.00;82.10
7814;DHT22;3952;48.364;16.022;2023-07-20T14:53:29;29.00;82.60
7814;DHT22;3952;48.364;16.022;2023-07-20T14:56:00;29.00;83.30
7814;DHT22;3952;48.364;16.022;2023-07-20T14:58:27;29.00;82.30
7814;DHT22;3952;48.364;16.022;2023-07-20T15:00:54;29.10;82.90
7814;DHT22;3952;48.364;16.022;2023-07-20T15:03:23;29.10;81.80
7814;DHT22;3952;48.364;16.022;2023-07-20T15:05:50;29.10;81.70
7814;DHT22;3952;48.364;16.022;2023-07-20T15:08:18;29.20;83.10
7814;DHT22;3952;48.364;16.022;2023-07-20T15:10:45;29.10;81.00
7814;DHT22;3952;48.364;16.022;2023-07-20T15:13:13;29.00;81.10
7814;DHT22;3952;48.364;16.022;2023-07-20T15:15:40;28.90;80.30
7814;DHT22;3952;48.364;16.022;2023-07-20T15:18:08;28.80;80.60
7814;DHT22;3952;48.364;16.022;2023-07-20T15:20:37;28.80;82.30
7814;DHT22;3952;48.364;16.022;2023-07-20T15:23:04;28.70;82.60
7814;DHT22;3952;48.364;16.022;2023-07-20T15:25:31;28.70;82.60
7814;DHT22;3952;48.364;16.022;2023-07-20T15:27:59;28.70;83.20
7814;DHT22;3952;48.364;16.022;2023-07-20T15:30:27;28.60;82.10
7814;DHT22;3952;48.364;16.022;2023-07-20T15:32:55;28.60;81.70
7814;DHT22;3952;48.364;16.022;2023-07-20T15:35:22;28.50;82.90
7814;DHT22;3952;48.364;16.022;2023-07-20T15:37:51;28.50;81.80
7814;DHT22;3952;48.364;16.022;2023-07-20T15:40:18;28.40;82.80
7814;DHT22;3952;48.364;16.022;2023-07-20T15:42:45;28.20;82.00
7814;DHT22;3952;48.364;16.022;2023-07-20T15:45:14;28.10;83.60
7814;DHT22;3952;48.364;16.022;2023-07-20T15:47:41;27.90;83.70
7814;DHT22;3952;48.364;16.022;2023-07-20T15:50:09;27.90;84.00
7814;DHT22;3952;48.364;16.022;2023-07-20T15:52:36;27.90;84.60
7814;DHT22;3952;48.364;16.022;2023-07-20T15:55:07;27.90;85.40